createdAt,value
2023-02-09T00:01:17.644Z,102374.66
2023-02-09T00:02:43.820Z,102379.00
2023-02-09T00:04:07.951Z,102379.00
2023-02-09T00:05:30.144Z,102375.53
2023-02-09T00:06:56.065Z,102367.69
2023-02-09T00:08:18.258Z,102364.28
2023-02-09T00:09:40.923Z,102372.06
2023-02-09T00:11:07.913Z,102368.53
2023-02-09T00:12:50.272Z,102370.31
2023-02-09T00:14:11.449Z,102365.16
2023-02-09T00:15:39.154Z,102366.00
2023-02-09T00:17:02.868Z,102363.41
2023-02-09T00:18:26.639Z,102366.97
2023-02-09T00:19:50.262Z,102351.25
2023-02-09T00:21:12.273Z,102359.06
2023-02-09T00:22:34.952Z,102353.88
2023-02-09T00:23:58.620Z,102345.03
2023-02-09T00:25:21.073Z,102351.16
2023-02-09T00:26:42.662Z,102338.00
2023-02-09T00:28:05.526Z,102326.78
2023-02-09T00:29:27.965Z,102338.91
2023-02-09T00:30:52.340Z,102338.06
2023-02-09T00:32:13.993Z,102338.91
2023-02-09T00:33:42.293Z,102335.44
2023-02-09T00:35:07.939Z,102325.75
2023-02-09T00:36:31.532Z,102332.81
2023-02-09T00:37:53.900Z,102324.03
2023-02-09T00:39:15.053Z,102315.31
2023-02-09T00:40:39.323Z,102313.50
2023-02-09T00:42:08.337Z,102313.53
2023-02-09T00:43:31.610Z,102304.75
2023-02-09T00:44:54.248Z,102308.31
2023-02-09T00:46:16.888Z,102310.97
2023-02-09T00:47:39.021Z,102309.28
2023-02-09T00:49:05.135Z,102306.56
2023-02-09T00:50:32.680Z,102307.59
2023-02-09T00:52:29.184Z,102307.59
2023-02-09T00:53:51.953Z,102318.16
2023-02-09T00:55:21.285Z,102297.19
2023-02-09T00:56:42.589Z,102298.09
2023-02-09T00:58:05.074Z,102297.28
2023-02-09T00:59:37.331Z,102304.19
2023-02-09T01:01:01.605Z,102303.41
2023-02-09T01:02:33.641Z,102309.53
2023-02-09T01:03:55.318Z,102296.47
2023-02-09T01:05:19.707Z,102316.59
2023-02-09T01:06:42.350Z,102316.59
2023-02-09T01:08:04.712Z,102307.06
2023-02-09T01:09:27.776Z,102313.97
2023-02-09T01:10:50.220Z,102303.50
2023-02-09T01:12:13.650Z,102306.97
2023-02-09T01:13:35.914Z,102300.84
2023-02-09T01:14:58.042Z,102301.72
2023-02-09T01:16:21.695Z,102305.22
2023-02-09T01:17:43.938Z,102295.53
2023-02-09T01:19:06.364Z,102299.16
2023-02-09T01:20:30.180Z,102305.22
2023-02-09T01:21:55.601Z,102296.47
2023-02-09T01:23:20.516Z,102306.97
2023-02-09T01:24:43.128Z,102295.59
2023-02-09T01:26:11.079Z,102294.72
2023-02-09T01:27:34.614Z,102298.25
2023-02-09T01:28:59.748Z,102302.63
2023-02-09T01:30:23.878Z,102302.66
2023-02-09T01:31:47.157Z,102295.63
2023-02-09T01:33:09.822Z,102295.63
2023-02-09T01:34:30.898Z,102292.16
2023-02-09T01:36:15.530Z,102285.13
2023-02-09T01:37:37.910Z,102290.44
2023-02-09T01:39:02.541Z,102288.72
2023-02-09T01:40:24.771Z,102287.81
2023-02-09T01:41:54.073Z,102277.34
2023-02-09T01:43:16.700Z,102282.63
2023-02-09T01:45:07.889Z,102281.78
2023-02-09T01:46:34.617Z,102280.06
2023-02-09T01:48:00.247Z,102275.69
2023-02-09T01:49:26.500Z,102273.97
2023-02-09T01:50:50.000Z,102272.28
2023-02-09T01:52:22.317Z,102267.91
2023-02-09T01:53:45.435Z,102267.91
2023-02-09T01:55:11.517Z,102267.03
2023-02-09T01:56:33.858Z,102259.16
2023-02-09T01:58:00.866Z,102262.69
2023-02-09T01:59:23.679Z,102264.44
2023-02-09T02:00:46.896Z,102262.72
2023-02-09T02:02:12.302Z,102261.88
2023-02-09T02:03:34.972Z,102256.63
2023-02-09T02:04:58.828Z,102254.00
2023-02-09T02:06:21.466Z,102257.63
2023-02-09T02:07:48.444Z,102257.53
2023-02-09T02:09:14.137Z,102255.03
2023-02-09T02:10:36.029Z,102254.94
2023-02-09T02:11:58.526Z,102242.69
2023-02-09T02:13:24.250Z,102247.13
2023-02-09T02:14:46.466Z,102247.97
2023-02-09T02:16:24.502Z,102242.72
2023-02-09T02:18:01.382Z,102241.03
2023-02-09T02:20:08.561Z,102238.38
2023-02-09T02:22:03.843Z,102230.66
2023-02-09T02:23:37.656Z,102235.88
2023-02-09T02:25:19.595Z,102235.03
2023-02-09T02:26:59.755Z,102235.97
2023-02-09T02:28:41.977Z,102237.75
2023-02-09T02:30:36.137Z,102229.94
2023-02-09T02:32:20.483Z,102229.94
2023-02-09T02:33:47.206Z,102224.69
2023-02-09T02:35:17.891Z,102226.47
2023-02-09T02:36:53.745Z,102222.06
2023-02-09T02:38:20.025Z,102217.72
2023-02-09T02:39:52.491Z,102212.56
2023-02-09T02:41:16.343Z,102228.34
2023-02-09T02:42:50.685Z,102224.81
2023-02-09T02:44:17.447Z,102223.06
2023-02-09T02:45:45.178Z,102216.91
2023-02-09T02:47:12.392Z,102208.22
2023-02-09T02:48:39.065Z,102206.44
2023-02-09T02:50:06.542Z,102205.53
2023-02-09T02:51:33.505Z,102197.63
2023-02-09T02:52:58.156Z,102201.13
2023-02-09T02:54:26.566Z,102201.97
2023-02-09T02:55:51.639Z,102197.59
2023-02-09T02:57:18.314Z,102181.78
2023-02-09T02:58:42.863Z,102180.03
2023-02-09T03:00:12.454Z,102179.16
2023-02-09T03:01:40.718Z,102183.50
2023-02-09T03:03:11.721Z,102175.59
2023-02-09T03:04:37.009Z,102167.63
2023-02-09T03:05:59.540Z,102179.00
2023-02-09T03:07:22.188Z,102172.88
2023-02-09T03:08:48.905Z,102174.53
2023-02-09T03:10:27.084Z,102173.69
2023-02-09T03:11:53.237Z,102154.44
2023-02-09T03:13:37.392Z,102176.16
2023-02-09T03:15:15.542Z,102171.69
2023-02-09T03:16:46.510Z,102163.09
2023-02-09T03:18:21.829Z,102175.19
2023-02-09T03:19:52.793Z,102178.69
2023-02-09T03:21:17.466Z,102176.88
2023-02-09T03:22:43.234Z,102179.50
2023-02-09T03:24:08.129Z,102176.00
2023-02-09T03:25:35.926Z,102178.63
2023-02-09T03:27:02.479Z,102175.16
2023-02-09T03:28:30.465Z,102181.28
2023-02-09T03:29:56.457Z,102164.78
2023-02-09T03:31:18.793Z,102181.38
2023-02-09T03:32:43.671Z,102179.63
2023-02-09T03:34:07.037Z,102167.38
2023-02-09T03:35:37.670Z,102167.47
2023-02-09T03:37:00.233Z,102163.06
2023-02-09T03:38:23.110Z,102160.44
2023-02-09T03:39:45.566Z,102159.59
2023-02-09T03:41:09.479Z,102167.47
2023-02-09T03:42:31.712Z,102164.00
2023-02-09T03:44:11.337Z,102163.09
2023-02-09T03:45:33.901Z,102170.13
2023-02-09T03:46:56.790Z,102159.63
2023-02-09T03:48:19.184Z,102159.69
2023-02-09T03:49:42.985Z,102157.91
2023-02-09T03:51:06.869Z,102150.03
2023-02-09T03:52:31.105Z,102162.31
2023-02-09T03:53:52.165Z,102153.59
2023-02-09T03:55:17.047Z,102159.69
2023-02-09T03:56:39.630Z,102153.59
2023-02-09T03:58:01.903Z,102151.00
2023-02-09T03:59:25.360Z,102150.97
2023-02-09T04:00:47.853Z,102153.59
2023-02-09T04:02:11.522Z,102147.47
2023-02-09T04:03:33.170Z,102152.75
2023-02-09T04:04:57.165Z,102144.00
2023-02-09T04:06:18.491Z,102148.53
2023-02-09T04:07:43.789Z,102152.81
2023-02-09T04:09:06.866Z,102145.81
2023-02-09T04:10:31.609Z,102134.56
2023-02-09T04:11:53.744Z,102144.09
2023-02-09T04:13:15.695Z,102151.19
2023-02-09T04:14:41.105Z,102141.59
2023-02-09T04:16:02.693Z,102145.06
2023-02-09T04:17:25.121Z,102147.72
2023-02-09T04:18:46.775Z,102146.88
2023-02-09T04:20:11.265Z,102152.13
2023-02-09T04:21:32.765Z,102142.53
2023-02-09T04:22:54.885Z,102135.53
2023-02-09T04:24:17.354Z,102135.53
2023-02-09T04:25:38.544Z,102132.13
2023-02-09T04:27:01.075Z,102133.78
2023-02-09T04:28:23.440Z,102144.31
2023-02-09T04:29:46.068Z,102138.16
2023-02-09T04:31:08.669Z,102132.97
2023-02-09T04:32:41.503Z,102132.94
2023-02-09T04:34:04.164Z,102131.16
2023-02-09T04:35:27.136Z,102132.97
2023-02-09T04:36:49.246Z,102133.84
2023-02-09T04:38:10.636Z,102135.53
2023-02-09T04:39:35.933Z,102132.94
2023-02-09T04:41:01.275Z,102131.16
2023-02-09T04:42:23.112Z,102122.50
2023-02-09T04:43:46.959Z,102131.16
2023-02-09T04:45:09.356Z,102125.13
2023-02-09T04:46:31.823Z,102132.88
2023-02-09T04:47:54.030Z,102121.50
2023-02-09T04:49:16.134Z,102122.34
2023-02-09T04:50:38.152Z,102125.94
2023-02-09T04:52:00.765Z,102118.03
2023-02-09T04:53:23.995Z,102115.47
2023-02-09T04:54:46.285Z,102118.03
2023-02-09T04:56:09.301Z,102118.03
2023-02-09T04:57:48.679Z,102112.78
2023-02-09T04:59:34.051Z,102120.72
2023-02-09T05:00:56.971Z,102115.59
2023-02-09T05:02:19.272Z,102121.59
2023-02-09T05:03:43.768Z,102107.72
2023-02-09T05:05:06.333Z,102118.97
2023-02-09T05:06:30.631Z,102120.84
2023-02-09T05:07:51.913Z,102119.03
2023-02-09T05:09:14.450Z,102111.09
2023-02-09T05:10:35.957Z,102117.25
2023-02-09T05:11:58.155Z,102109.38
2023-02-09T05:13:21.573Z,102114.63
2023-02-09T05:14:44.016Z,102105.00
2023-02-09T05:16:10.258Z,102108.47
2023-02-09T05:17:35.067Z,102105.81
2023-02-09T05:18:57.477Z,102098.00
2023-02-09T05:20:22.014Z,102106.72
2023-02-09T05:21:45.720Z,102102.31
2023-02-09T05:23:07.062Z,102090.16
2023-02-09T05:24:29.230Z,102105.81
2023-02-09T05:25:51.661Z,102099.78
2023-02-09T05:27:13.968Z,102095.38
2023-02-09T05:28:36.323Z,102101.47
2023-02-09T05:29:58.523Z,102097.94
2023-02-09T05:31:20.856Z,102107.59
2023-02-09T05:32:43.039Z,102099.72
2023-02-09T05:34:05.140Z,102094.53
2023-02-09T05:35:26.650Z,102089.38
2023-02-09T05:36:50.641Z,102085.91
2023-02-09T05:38:15.586Z,102098.06
2023-02-09T05:39:37.808Z,102091.94
2023-02-09T05:40:59.883Z,102088.47
2023-02-09T05:42:21.233Z,102089.38
2023-02-09T05:43:43.691Z,102081.59
2023-02-09T05:45:06.500Z,102085.03
2023-02-09T05:46:28.814Z,102080.72
2023-02-09T05:47:54.931Z,102076.31
2023-02-09T05:49:17.515Z,102079.81
2023-02-09T05:50:41.905Z,102070.13
2023-02-09T05:52:06.539Z,102063.16
2023-02-09T05:53:28.783Z,102066.63
2023-02-09T05:54:50.343Z,102068.38
2023-02-09T05:56:13.497Z,102076.22
2023-02-09T05:57:36.102Z,102065.69
2023-02-09T05:58:58.363Z,102064.84
2023-02-09T06:00:21.183Z,102061.25
2023-02-09T06:01:42.623Z,102059.59
2023-02-09T06:03:04.948Z,102070.00
2023-02-09T06:04:27.664Z,102065.59
2023-02-09T06:05:49.955Z,102069.03
2023-02-09T06:07:13.649Z,102064.63
2023-02-09T06:08:36.106Z,102064.59
2023-02-09T06:09:57.399Z,102056.81
2023-02-09T06:11:20.656Z,102071.56
2023-02-09T06:12:43.203Z,102064.50
2023-02-09T06:14:07.156Z,102065.38
2023-02-09T06:15:29.517Z,102060.09
2023-02-09T06:16:52.238Z,102059.16
2023-02-09T06:18:15.344Z,102052.97
2023-02-09T06:19:37.376Z,102039.88
2023-02-09T06:20:59.731Z,102046.75
2023-02-09T06:22:23.574Z,102047.59
2023-02-09T06:23:44.924Z,102050.22
2023-02-09T06:25:15.508Z,102054.53
2023-02-09T06:26:38.296Z,102054.47
2023-02-09T06:28:00.929Z,102053.53
2023-02-09T06:29:25.867Z,102051.75
2023-02-09T06:30:51.818Z,102053.41
2023-02-09T06:32:16.683Z,102051.63
2023-02-09T06:33:39.314Z,102057.66
2023-02-09T06:35:01.337Z,102047.06
2023-02-09T06:36:23.846Z,102051.41
2023-02-09T06:37:47.398Z,102049.59
2023-02-09T06:39:10.900Z,102052.13
2023-02-09T06:40:33.212Z,102040.66
2023-02-09T06:41:57.395Z,102047.59
2023-02-09T06:43:18.750Z,102055.38
2023-02-09T06:44:40.975Z,102043.91
2023-02-09T06:46:11.969Z,102043.00
2023-02-09T06:47:33.484Z,102043.75
2023-02-09T06:48:57.198Z,102039.34
2023-02-09T06:50:21.420Z,102046.25
2023-02-09T06:51:43.924Z,102056.72
2023-02-09T06:53:08.036Z,102050.59
2023-02-09T06:54:30.700Z,102047.00
2023-02-09T06:55:52.970Z,102050.44
2023-02-09T06:57:15.475Z,102047.69
2023-02-09T06:58:39.650Z,102037.97
2023-02-09T07:00:02.495Z,102044.84
2023-02-09T07:01:25.126Z,102037.03
2023-02-09T07:02:47.609Z,102040.31
2023-02-09T07:04:10.134Z,102035.81
2023-02-09T07:05:34.323Z,102036.63
2023-02-09T07:06:57.075Z,102033.78
2023-02-09T07:08:21.025Z,102026.66
2023-02-09T07:09:43.322Z,102020.47
2023-02-09T07:11:07.073Z,102016.75
2023-02-09T07:12:31.936Z,102017.44
2023-02-09T07:13:54.675Z,102013.72
2023-02-09T07:15:16.704Z,102010.94
2023-02-09T07:16:39.262Z,102011.66
2023-02-09T07:18:01.564Z,102010.66
2023-02-09T07:19:24.461Z,102003.44
2023-02-09T07:20:47.112Z,102001.53
2023-02-09T07:22:09.754Z,102005.81
2023-02-09T07:23:36.104Z,102006.47
2023-02-09T07:25:09.357Z,102011.53
2023-02-09T07:26:32.287Z,102007.81
2023-02-09T07:27:54.999Z,101999.81
2023-02-09T07:29:21.017Z,101999.53
2023-02-09T07:30:43.752Z,101991.59
2023-02-09T07:32:07.372Z,101992.19
2023-02-09T07:33:31.943Z,101998.97
2023-02-09T07:34:54.690Z,101991.75
2023-02-09T07:36:21.239Z,101985.44
2023-02-09T07:37:45.384Z,101984.34
2023-02-09T07:39:09.445Z,101990.28
2023-02-09T07:40:35.268Z,101990.03
2023-02-09T07:42:06.533Z,101981.09
2023-02-09T07:43:47.960Z,101969.72
2023-02-09T07:45:13.149Z,101979.81
2023-02-09T07:46:38.109Z,101968.31
2023-02-09T07:48:06.030Z,101977.59
2023-02-09T07:49:33.532Z,101970.59
2023-02-09T07:51:15.589Z,101967.53
2023-02-09T07:52:37.623Z,101984.03
2023-02-09T07:54:00.571Z,101983.00
2023-02-09T07:55:26.929Z,101984.56
2023-02-09T07:56:51.146Z,101986.19
2023-02-09T07:58:14.946Z,101975.34
2023-02-09T07:59:43.200Z,101978.75
2023-02-09T08:01:15.078Z,101965.44
2023-02-09T08:02:41.636Z,101972.16
2023-02-09T08:04:04.451Z,101965.09
2023-02-09T08:05:31.998Z,101963.13
2023-02-09T08:06:58.697Z,101962.75
2023-02-09T08:08:26.945Z,101963.47
2023-02-09T08:09:51.610Z,101965.06
2023-02-09T08:11:24.794Z,101965.72
2023-02-09T08:13:02.284Z,101949.91
2023-02-09T08:14:30.243Z,101956.47
2023-02-09T08:15:57.546Z,101964.22
2023-02-09T08:17:28.406Z,101955.44
2023-02-09T08:19:02.458Z,101959.44
2023-02-09T08:20:28.870Z,101962.00
2023-02-09T08:21:52.202Z,101953.81
2023-02-09T08:23:23.925Z,101951.78
2023-02-09T08:24:46.360Z,101949.78
2023-02-09T08:26:11.433Z,101941.69
2023-02-09T08:27:39.408Z,101950.91
2023-02-09T08:29:02.128Z,101959.03
2023-02-09T08:30:30.642Z,101946.00
2023-02-09T08:32:05.837Z,101946.00
2023-02-09T08:33:32.815Z,101958.16
2023-02-09T08:34:56.390Z,101942.47
2023-02-09T08:36:20.480Z,101952.91
2023-02-09T08:37:48.059Z,101952.13
2023-02-09T08:39:11.106Z,101946.66
2023-02-09T08:40:38.506Z,101940.56
2023-02-09T08:42:04.330Z,101945.88
2023-02-09T08:43:29.774Z,101949.53
2023-02-09T08:44:52.702Z,101937.22
2023-02-09T08:46:15.389Z,101943.44
2023-02-09T08:47:42.602Z,101948.03
2023-02-09T08:49:05.234Z,101936.88
2023-02-09T08:50:27.446Z,101938.66
2023-02-09T08:51:51.949Z,101942.44
2023-02-09T08:53:19.735Z,101949.75
2023-02-09T08:54:43.043Z,101941.31
2023-02-09T08:56:11.954Z,101946.72
2023-02-09T08:57:43.415Z,101956.72
2023-02-09T08:59:08.802Z,101944.00
2023-02-09T09:00:36.686Z,101947.00
2023-02-09T09:01:59.736Z,101952.47
2023-02-09T09:03:22.069Z,101938.78
2023-02-09T09:04:51.618Z,101940.41
2023-02-09T09:06:15.568Z,101945.19
2023-02-09T09:07:43.339Z,101961.56
2023-02-09T09:09:24.740Z,101956.63
2023-02-09T09:10:50.644Z,101943.88
2023-02-09T09:12:15.100Z,101957.06
2023-02-09T09:13:37.693Z,101960.09
2023-02-09T09:15:02.151Z,101947.53
2023-02-09T09:16:30.667Z,101948.13
2023-02-09T09:17:55.335Z,101953.31
2023-02-09T09:19:18.152Z,101951.81
2023-02-09T09:20:43.928Z,101953.34
2023-02-09T09:22:09.634Z,101945.81
2023-02-09T09:23:37.180Z,101950.00
2023-02-09T09:24:59.364Z,101939.44
2023-02-09T09:26:21.801Z,101959.31
2023-02-09T09:27:44.976Z,101948.38
2023-02-09T09:29:07.590Z,101955.13
2023-02-09T09:30:32.266Z,101954.19
2023-02-09T09:31:57.269Z,101956.28
2023-02-09T09:33:22.104Z,101962.25
2023-02-09T09:34:47.194Z,101944.22
2023-02-09T09:36:12.620Z,101960.41
2023-02-09T09:37:34.972Z,101962.78
2023-02-09T09:41:32.906Z,101943.44
2023-02-09T09:43:23.331Z,101961.53
2023-02-09T09:44:48.076Z,101956.00
2023-02-09T09:46:18.874Z,101950.44
2023-02-09T09:47:49.277Z,101955.47
2023-02-09T09:49:24.223Z,101949.19
2023-02-09T09:50:47.662Z,101949.00
2023-02-09T09:52:20.070Z,101944.50
2023-02-09T09:53:47.793Z,101972.34
2023-02-09T09:55:16.686Z,101951.66
2023-02-09T09:56:41.822Z,101952.59
2023-02-09T09:58:07.313Z,101947.59
2023-02-09T09:59:38.949Z,101942.34
2023-02-09T10:01:04.476Z,101960.59
2023-02-09T10:02:33.190Z,101961.59
2023-02-09T10:04:02.165Z,101956.34
2023-02-09T10:05:29.140Z,101952.94
2023-02-09T10:07:00.358Z,101964.16
2023-02-09T10:08:41.583Z,101947.69
2023-02-09T10:10:19.121Z,101957.69
2023-02-09T10:11:51.539Z,101954.53
2023-02-09T10:13:24.786Z,101945.09
2023-02-09T10:14:57.775Z,101949.50
2023-02-09T10:16:25.107Z,101950.81
2023-02-09T10:18:01.156Z,101945.66
2023-02-09T10:19:35.967Z,101952.44
2023-02-09T10:21:04.024Z,101936.59
2023-02-09T10:22:31.696Z,101931.91
2023-02-09T10:24:21.412Z,101928.47
2023-02-09T10:26:06.401Z,101926.66
2023-02-09T10:27:32.641Z,101915.91
2023-02-09T10:28:57.482Z,101930.19
2023-02-09T10:30:33.332Z,101925.91
2023-02-09T10:32:07.697Z,101898.97
2023-02-09T10:33:44.470Z,101905.06
2023-02-09T10:35:29.391Z,101902.69
2023-02-09T10:36:53.268Z,101919.78
2023-02-09T10:38:19.248Z,101906.75
2023-02-09T10:39:43.647Z,101886.28
2023-02-09T10:41:11.672Z,101900.25
2023-02-09T10:42:36.041Z,101893.50
2023-02-09T10:44:04.959Z,101903.34
2023-02-09T10:45:30.830Z,101892.88
2023-02-09T10:47:11.239Z,101895.75
2023-02-09T10:48:44.611Z,101895.94
2023-02-09T10:50:19.354Z,101904.13
2023-02-09T10:51:44.093Z,101898.16
2023-02-09T10:53:21.318Z,101886.16
2023-02-09T10:54:44.893Z,101888.28
2023-02-09T10:56:12.018Z,101894.56
2023-02-09T10:57:38.506Z,101894.75
2023-02-09T10:59:04.897Z,101893.22
2023-02-09T11:00:34.251Z,101882.00
2023-02-09T11:01:59.213Z,101876.31
2023-02-09T11:03:25.483Z,101880.59
2023-02-09T11:04:49.619Z,101880.78
2023-02-09T11:06:17.853Z,101874.78
2023-02-09T11:07:43.649Z,101862.72
2023-02-09T11:09:18.279Z,101867.19
2023-02-09T11:10:50.478Z,101862.44
2023-02-09T11:12:14.240Z,101856.16
2023-02-09T11:13:37.141Z,101859.00
2023-02-09T11:15:02.957Z,101853.78
2023-02-09T11:16:49.034Z,101865.59
2023-02-09T11:18:19.520Z,101868.53
2023-02-09T11:20:00.588Z,101861.59
2023-02-09T11:21:35.284Z,101859.03
2023-02-09T11:23:31.990Z,101858.47
2023-02-09T11:25:03.707Z,101847.97
2023-02-09T11:26:39.542Z,101858.75
2023-02-09T11:28:28.492Z,101849.31
2023-02-09T11:29:59.315Z,101862.81
2023-02-09T11:31:44.545Z,101860.16
2023-02-09T11:33:12.507Z,101848.75
2023-02-09T11:35:03.673Z,101853.34
2023-02-09T11:36:47.717Z,101851.81
2023-02-09T11:38:16.357Z,101856.94
2023-02-09T11:39:45.909Z,101841.22
2023-02-09T11:41:27.405Z,101850.84
2023-02-09T11:42:58.538Z,101851.81
2023-02-09T11:44:28.594Z,101835.34
2023-02-09T11:45:52.058Z,101843.91
2023-02-09T11:47:19.632Z,101836.00
2023-02-09T11:48:48.750Z,101843.13
2023-02-09T11:50:21.350Z,101842.28
2023-02-09T11:51:47.802Z,101844.84
2023-02-09T11:53:21.699Z,101836.09
2023-02-09T11:54:52.340Z,101843.25
2023-02-09T11:56:16.655Z,101823.75
2023-02-09T11:57:46.572Z,101821.09
2023-02-09T11:59:17.795Z,101824.03
2023-02-09T12:00:56.287Z,101819.47
2023-02-09T12:02:33.007Z,101811.75
2023-02-09T12:04:05.160Z,101812.69
2023-02-09T12:05:29.782Z,101816.13
2023-02-09T12:06:55.790Z,101810.91
2023-02-09T12:08:50.334Z,101811.00
2023-02-09T12:10:21.450Z,101796.72
2023-02-09T12:11:57.376Z,101797.88
2023-02-09T12:13:35.069Z,101800.44
2023-02-09T12:15:04.610Z,101808.41
2023-02-09T12:16:30.560Z,101815.47
2023-02-09T12:18:00.614Z,101803.28
2023-02-09T12:19:31.678Z,101802.22
2023-02-09T12:20:58.394Z,101794.44
2023-02-09T12:22:49.661Z,101793.59
2023-02-09T12:24:34.171Z,101796.25
2023-02-09T12:26:00.172Z,101798.72
2023-02-09T12:27:28.129Z,101800.63
2023-02-09T12:29:03.799Z,101796.91
2023-02-09T12:31:01.425Z,101790.75
2023-02-09T12:32:44.071Z,101790.75
2023-02-09T12:34:16.321Z,101782.94
2023-02-09T12:35:39.773Z,101782.94
2023-02-09T12:37:27.243Z,101781.97
2023-02-09T12:39:06.581Z,101785.59
2023-02-09T12:40:37.767Z,101777.91
2023-02-09T12:42:42.480Z,101778.66
2023-02-09T12:44:39.513Z,101779.53
2023-02-09T12:46:17.962Z,101784.72
2023-02-09T12:47:46.228Z,101769.81
2023-02-09T12:49:21.015Z,101771.53
2023-02-09T12:50:55.299Z,101768.75
2023-02-09T12:52:20.003Z,101767.06
2023-02-09T12:53:47.468Z,101754.78
2023-02-09T12:55:35.630Z,101760.78
2023-02-09T12:56:58.470Z,101768.59
2023-02-09T12:58:40.636Z,101753.66
2023-02-09T13:00:43.830Z,101757.06
2023-02-09T13:02:18.191Z,101764.13
2023-02-09T13:03:46.287Z,101758.88
2023-02-09T13:05:13.093Z,101752.03
2023-02-09T13:06:42.252Z,101764.31
2023-02-09T13:08:16.698Z,101753.47
2023-02-09T13:09:46.570Z,101754.31
2023-02-09T13:11:24.664Z,101751.72
2023-02-09T13:12:53.325Z,101752.50
2023-02-09T13:14:18.079Z,101760.47
2023-02-09T13:15:53.446Z,101755.16
2023-02-09T13:17:38.252Z,101753.53
2023-02-09T13:19:14.278Z,101756.97
2023-02-09T13:21:09.082Z,101762.38
2023-02-09T13:22:47.032Z,101756.22
2023-02-09T13:24:16.497Z,101761.53
2023-02-09T13:25:44.538Z,101761.53
2023-02-09T13:27:19.450Z,101760.78
2023-02-09T13:28:41.926Z,101759.91
2023-02-09T13:30:06.196Z,101756.31
2023-02-09T13:31:37.025Z,101760.03
2023-02-09T13:33:09.527Z,101764.31
2023-02-09T13:34:42.307Z,101758.22
2023-02-09T13:36:24.695Z,101753.75
2023-02-09T13:37:49.437Z,101758.22
2023-02-09T13:39:23.165Z,101753.81
2023-02-09T13:40:50.432Z,101743.28
2023-02-09T13:42:21.855Z,101745.19
2023-02-09T13:43:48.370Z,101757.38
2023-02-09T13:45:19.559Z,101760.97
2023-02-09T13:46:41.730Z,101752.13
2023-02-09T13:48:15.228Z,101744.16
2023-02-09T13:49:37.552Z,101735.59
2023-02-09T13:51:02.732Z,101723.25
2023-02-09T13:52:26.937Z,101738.06
2023-02-09T13:53:58.271Z,101731.31
2023-02-09T13:55:27.153Z,101731.97
2023-02-09T13:56:52.861Z,101732.94
2023-02-09T13:58:24.670Z,101724.25
2023-02-09T13:59:50.228Z,101716.47
2023-02-09T14:01:18.197Z,101725.22
2023-02-09T14:02:48.380Z,101719.97
2023-02-09T14:04:17.058Z,101720.75
2023-02-09T14:05:43.885Z,101722.56
2023-02-09T14:07:14.855Z,101724.38
2023-02-09T14:08:41.349Z,101715.81
2023-02-09T14:10:20.190Z,101721.16
2023-02-09T14:11:49.989Z,101713.16
2023-02-09T14:13:19.721Z,101717.53
2023-02-09T14:15:03.040Z,101708.13
2023-02-09T14:16:28.236Z,101712.31
2023-02-09T14:17:53.996Z,101707.06
2023-02-09T14:19:27.630Z,101713.34
2023-02-09T14:21:10.689Z,101706.59
2023-02-09T14:22:35.932Z,101710.97
2023-02-09T14:24:17.733Z,101716.38
2023-02-09T14:25:40.464Z,101715.41
2023-02-09T14:27:18.303Z,101700.63
2023-02-09T14:28:40.896Z,101706.78
2023-02-09T14:30:03.428Z,101705.94
2023-02-09T14:31:28.055Z,101713.22
2023-02-09T14:32:55.759Z,101714.84
2023-02-09T14:34:25.626Z,101710.50
2023-02-09T14:35:56.122Z,101714.13
2023-02-09T14:37:31.954Z,101716.84
2023-02-09T14:39:05.754Z,101711.53
2023-02-09T14:40:34.414Z,101708.22
2023-02-09T14:42:18.627Z,101717.06
2023-02-09T14:43:41.186Z,101713.69
2023-02-09T14:45:30.828Z,101717.31
2023-02-09T14:46:54.788Z,101712.00
2023-02-09T14:48:26.795Z,101715.59
2023-02-09T14:49:49.272Z,101709.63
2023-02-09T14:51:18.613Z,101703.66
2023-02-09T14:52:46.758Z,101708.84
2023-02-09T14:54:25.947Z,101718.72
2023-02-09T14:55:49.239Z,101700.50
2023-02-09T14:57:14.529Z,101705.72
2023-02-09T14:58:41.325Z,101711.97
2023-02-09T15:00:15.005Z,101712.94
2023-02-09T15:01:37.770Z,101710.38
2023-02-09T15:03:00.444Z,101703.44
2023-02-09T15:04:23.317Z,101710.44
2023-02-09T15:05:46.863Z,101707.91
2023-02-09T15:07:17.498Z,101701.16
2023-02-09T15:08:44.156Z,101704.84
2023-02-09T15:10:17.128Z,101701.44
2023-02-09T15:11:56.464Z,101700.47
2023-02-09T15:13:21.244Z,101699.81
2023-02-09T15:14:45.597Z,101709.59
2023-02-09T15:16:09.965Z,101702.81
2023-02-09T15:17:33.015Z,101704.63
2023-02-09T15:18:55.601Z,101705.59
2023-02-09T15:20:21.492Z,101702.16
2023-02-09T15:21:44.157Z,101697.28
2023-02-09T15:23:09.866Z,101696.34
2023-02-09T15:24:32.177Z,101703.47
2023-02-09T15:25:54.878Z,101708.09
2023-02-09T15:27:25.191Z,101702.09
2023-02-09T15:28:49.427Z,101691.56
2023-02-09T15:30:15.674Z,101698.88
2023-02-09T15:31:41.100Z,101696.28
2023-02-09T15:33:03.631Z,101694.66
2023-02-09T15:34:26.150Z,101695.81
2023-02-09T15:35:49.362Z,101696.72
2023-02-09T15:37:22.308Z,101688.38
2023-02-09T15:38:44.553Z,101689.41
2023-02-09T15:40:44.007Z,101692.25
2023-02-09T15:42:32.731Z,101699.50
2023-02-09T15:44:14.128Z,101698.06
2023-02-09T15:46:05.975Z,101694.81
2023-02-09T15:47:46.370Z,101696.91
2023-02-09T15:49:08.720Z,101689.38
2023-02-09T15:50:33.027Z,101699.88
2023-02-09T15:51:55.474Z,101695.59
2023-02-09T15:53:21.415Z,101696.63
2023-02-09T15:54:44.603Z,101688.00
2023-02-09T15:56:10.973Z,101685.53
2023-02-09T15:57:32.526Z,101683.13
2023-02-09T15:59:00.193Z,101691.09
2023-02-09T16:00:35.104Z,101685.25
2023-02-09T16:02:07.000Z,101686.09
2023-02-09T16:03:31.996Z,101677.91
2023-02-09T16:04:58.033Z,101678.06
2023-02-09T16:06:25.996Z,101678.94
2023-02-09T16:07:50.695Z,101679.84
2023-02-09T16:09:18.976Z,101680.88
2023-02-09T16:10:41.583Z,101680.19
2023-02-09T16:12:05.231Z,101686.28
2023-02-09T16:13:30.854Z,101675.91
2023-02-09T16:14:54.545Z,101667.34
2023-02-09T16:16:17.942Z,101685.94
2023-02-09T16:17:41.766Z,101684.97
2023-02-09T16:19:05.358Z,101678.41
2023-02-09T16:20:31.108Z,101691.66
2023-02-09T16:22:00.455Z,101680.50
2023-02-09T16:23:47.969Z,101687.63
2023-02-09T16:25:21.802Z,101685.88
2023-02-09T16:26:44.245Z,101688.53
2023-02-09T16:28:06.665Z,101681.72
2023-02-09T16:29:29.168Z,101681.97
2023-02-09T16:30:55.391Z,101685.47
2023-02-09T16:32:22.975Z,101677.06
2023-02-09T16:33:46.644Z,101683.03
2023-02-09T16:35:16.798Z,101687.56
2023-02-09T16:36:42.715Z,101680.56
2023-02-09T16:38:16.649Z,101675.59
2023-02-09T16:39:41.811Z,101681.81
2023-02-09T16:41:04.479Z,101680.13
2023-02-09T16:42:26.298Z,101668.91
2023-02-09T16:43:52.065Z,101680.25
2023-02-09T16:45:16.603Z,101663.91